Baltimore, Maryland
Traffic Map
Current Weather Conditions
Baltimore, Maryland
Overcast Haze
Overcast
33°
Feels Like: 29°
Wind Chill: 29° Ceiling: 4200
Heat Index: 33° Visibility: 6mi
Dew Point: 26° Wind: 5mph
Humidity: 75% Direction: 40° (NE)
Pressure: 30.3in Gusts: 0mph
Raw Report DataKBWI 221354Z 04004KT 6SM HZ OVC042 01/M03 A3030 RMK AO2 SLP263 T00061033
Traffic Incident Summary
Active as of:
Severity:
Category:
InformationThere was an issue retrieving the traffic information for this location. Please try a different location or try again shortly.
Advertisements
Track Severe Weather on mobile